createdAt,value
2023-03-03T00:03:02.722Z,98783.06
2023-03-03T00:06:06.277Z,98787.06
2023-03-03T00:09:10.239Z,98779.75
2023-03-03T00:12:22.989Z,98780.28
2023-03-03T00:15:28.729Z,98790.22
2023-03-03T00:18:34.465Z,98787.50
2023-03-03T00:21:43.862Z,98786.38
2023-03-03T00:24:47.328Z,98783.91
2023-03-03T00:27:50.141Z,98789.03
2023-03-03T00:30:55.460Z,98792.25
2023-03-03T00:34:00.947Z,98791.16
2023-03-03T00:37:03.558Z,98779.50
2023-03-03T00:40:21.976Z,98777.06
2023-03-03T00:43:27.968Z,98776.22
2023-03-03T00:46:31.988Z,98784.25
2023-03-03T00:49:34.962Z,98780.94
2023-03-03T00:52:38.986Z,98775.84
2023-03-03T00:55:41.575Z,98774.72
2023-03-03T00:58:45.961Z,98777.97
2023-03-03T01:01:50.093Z,98776.38
2023-03-03T01:04:56.429Z,98772.00
2023-03-03T01:07:59.278Z,98772.47
2023-03-03T01:11:05.607Z,98771.72
2023-03-03T01:14:08.562Z,98765.78
2023-03-03T01:17:12.596Z,98767.66
2023-03-03T01:20:18.957Z,98769.53
2023-03-03T01:23:21.743Z,98761.38
2023-03-03T01:26:24.526Z,98763.81
2023-03-03T01:29:27.204Z,98765.69
2023-03-03T01:32:31.210Z,98771.25
2023-03-03T01:35:36.556Z,98777.59
2023-03-03T01:38:40.128Z,98778.19
2023-03-03T01:41:42.948Z,98778.78
2023-03-03T01:44:46.221Z,98779.78
2023-03-03T01:47:54.133Z,98769.94
2023-03-03T01:50:58.956Z,98765.69
2023-03-03T01:54:03.670Z,98774.47
2023-03-03T01:57:08.229Z,98769.53
2023-03-03T02:00:12.709Z,98770.09
2023-03-03T02:03:16.964Z,98770.38
2023-03-03T02:06:21.730Z,98763.34
2023-03-03T02:09:29.078Z,98755.84
2023-03-03T02:12:35.441Z,98756.88
2023-03-03T02:15:38.108Z,98751.72
2023-03-03T02:18:42.166Z,98753.59
2023-03-03T02:21:44.933Z,98744.19
2023-03-03T02:24:52.151Z,98742.47
2023-03-03T02:27:57.465Z,98745.16
2023-03-03T02:31:01.390Z,98741.88
2023-03-03T02:34:04.208Z,98748.41
2023-03-03T02:37:07.286Z,98753.00
2023-03-03T02:40:11.839Z,98743.44
2023-03-03T02:43:18.611Z,98745.09
2023-03-03T02:46:21.226Z,98748.78
2023-03-03T02:49:26.095Z,98751.34
2023-03-03T02:52:29.222Z,98760.63
2023-03-03T02:55:31.856Z,98760.44
2023-03-03T02:58:35.992Z,98757.53
2023-03-03T03:01:39.205Z,98763.28
2023-03-03T03:04:42.192Z,98763.38
2023-03-03T03:07:44.942Z,98762.34
2023-03-03T03:10:48.807Z,98766.66
2023-03-03T03:13:52.938Z,98767.22
2023-03-03T03:16:55.916Z,98765.09
2023-03-03T03:19:58.499Z,98764.03
2023-03-03T03:23:01.254Z,98758.09
2023-03-03T03:26:04.687Z,98756.75
2023-03-03T03:29:09.118Z,98754.84
2023-03-03T03:32:12.708Z,98765.13
2023-03-03T03:35:15.708Z,98765.41
2023-03-03T03:38:18.566Z,98765.69
2023-03-03T03:41:21.115Z,98758.91
2023-03-03T03:44:25.331Z,98769.44
2023-03-03T03:47:27.907Z,98769.16
2023-03-03T03:50:30.808Z,98765.94
2023-03-03T03:53:33.405Z,98774.28
2023-03-03T03:56:36.088Z,98774.84
2023-03-03T03:59:40.232Z,98762.44
2023-03-03T04:02:42.965Z,98763.75
2023-03-03T04:05:46.531Z,98761.34
2023-03-03T04:08:49.047Z,98767.03
2023-03-03T04:11:51.875Z,98769.44
2023-03-03T04:14:55.933Z,98766.47
2023-03-03T04:17:58.619Z,98766.75
2023-03-03T04:21:01.199Z,98767.28
2023-03-03T04:24:03.836Z,98768.34
2023-03-03T04:27:06.421Z,98775.91
2023-03-03T04:30:12.233Z,98787.25
2023-03-03T04:33:14.862Z,98786.16
2023-03-03T04:36:17.520Z,98784.81
2023-03-03T04:39:20.381Z,98786.16
2023-03-03T04:42:23.007Z,98776.69
2023-03-03T04:45:27.470Z,98779.41
2023-03-03T04:48:30.470Z,98787.78
2023-03-03T04:51:33.283Z,98789.91
2023-03-03T04:54:35.953Z,98796.13
2023-03-03T04:57:38.807Z,98804.50
2023-03-03T05:00:43.113Z,98798.56
2023-03-03T05:03:46.169Z,98802.63
2023-03-03T05:06:48.704Z,98807.75
2023-03-03T05:09:51.508Z,98799.13
2023-03-03T05:12:54.499Z,98799.91
2023-03-03T05:15:58.609Z,98803.44
2023-03-03T05:19:01.263Z,98810.97
2023-03-03T05:22:03.832Z,98806.94
2023-03-03T05:25:07.656Z,98805.56
2023-03-03T05:28:10.213Z,98797.72
2023-03-03T05:31:14.377Z,98802.84
2023-03-03T05:34:17.103Z,98804.78
2023-03-03T05:37:19.965Z,98808.84
2023-03-03T05:40:24.756Z,98800.97
2023-03-03T05:43:27.350Z,98815.28
2023-03-03T05:46:31.437Z,98812.63
2023-03-03T05:49:34.485Z,98827.78
2023-03-03T05:52:37.698Z,98831.00
2023-03-03T05:55:40.724Z,98830.97
2023-03-03T05:58:43.457Z,98828.56
2023-03-03T06:01:47.446Z,98833.69
2023-03-03T06:04:50.075Z,98836.66
2023-03-03T06:07:53.104Z,98830.69
2023-03-03T06:10:55.775Z,98834.72
2023-03-03T06:14:07.897Z,98838.00
2023-03-03T06:17:28.033Z,98832.59
2023-03-03T06:20:31.777Z,98846.59
2023-03-03T06:23:34.601Z,98849.59
2023-03-03T06:26:37.494Z,98847.13
2023-03-03T06:29:40.540Z,98849.28
2023-03-03T06:32:50.464Z,98864.16
2023-03-03T06:35:55.494Z,98862.00
2023-03-03T06:38:59.413Z,98862.84
2023-03-03T06:42:11.569Z,98863.63
2023-03-03T06:45:16.401Z,98870.66
2023-03-03T06:48:20.693Z,98862.53
2023-03-03T06:51:30.248Z,98861.94
2023-03-03T06:54:34.219Z,98874.66
2023-03-03T06:57:38.902Z,98876.75
2023-03-03T07:00:44.650Z,98878.84
2023-03-03T07:03:54.146Z,98882.88
2023-03-03T07:07:09.209Z,98879.31
2023-03-03T07:10:23.850Z,98883.56
2023-03-03T07:13:37.343Z,98891.88
2023-03-03T07:16:50.201Z,98893.44
2023-03-03T07:19:56.233Z,98900.22
2023-03-03T07:23:14.620Z,98895.13
2023-03-03T07:26:20.586Z,98900.00
2023-03-03T07:29:26.303Z,98892.59
2023-03-03T07:32:34.718Z,98895.06
2023-03-03T07:35:41.398Z,98893.28
2023-03-03T07:38:57.020Z,98896.63
2023-03-03T07:42:10.593Z,98902.41
2023-03-03T07:45:26.337Z,98899.72
2023-03-03T07:48:33.150Z,98896.03
2023-03-03T07:51:42.160Z,98906.78
2023-03-03T07:54:47.379Z,98908.25
2023-03-03T07:57:52.633Z,98907.50
2023-03-03T08:01:27.072Z,98912.56
2023-03-03T08:04:34.376Z,98914.16
2023-03-03T08:07:40.090Z,98922.78
2023-03-03T08:11:07.400Z,98927.28
2023-03-03T08:14:14.005Z,98928.25
2023-03-03T08:17:27.667Z,98931.63
2023-03-03T08:20:52.996Z,98929.25
2023-03-03T08:23:57.232Z,98927.91
2023-03-03T08:26:59.979Z,98931.31
2023-03-03T08:30:02.579Z,98917.06
2023-03-03T08:33:06.022Z,98922.63
2023-03-03T08:36:12.855Z,98918.78
2023-03-03T08:39:16.888Z,98917.53
2023-03-03T08:42:20.966Z,98923.75
2023-03-03T08:45:25.892Z,98915.75
2023-03-03T08:48:35.746Z,98917.78
2023-03-03T08:51:41.362Z,98915.69
2023-03-03T08:55:19.424Z,98935.16
2023-03-03T08:58:30.583Z,98930.06
2023-03-03T09:01:39.139Z,98936.88
2023-03-03T09:04:42.140Z,98940.56
2023-03-03T09:07:47.849Z,98948.72
2023-03-03T09:10:51.982Z,98947.84
2023-03-03T09:13:59.001Z,98944.56
2023-03-03T09:17:03.610Z,98953.78
2023-03-03T09:20:26.431Z,98957.63
2023-03-03T09:23:33.716Z,98948.06
2023-03-03T09:26:46.847Z,98958.22
2023-03-03T09:29:49.578Z,98964.34
2023-03-03T09:32:52.356Z,98973.53
2023-03-03T09:35:58.381Z,98966.53
2023-03-03T09:39:01.030Z,98973.97
2023-03-03T09:42:15.850Z,98963.06
2023-03-03T09:45:35.718Z,98964.75
2023-03-03T09:48:59.275Z,98949.69
2023-03-03T09:52:13.142Z,98956.75
2023-03-03T09:55:26.734Z,98958.00
2023-03-03T09:58:48.094Z,98954.72
2023-03-03T10:01:58.477Z,98960.16
2023-03-03T10:05:16.740Z,98953.88
2023-03-03T10:08:31.627Z,98961.13
2023-03-03T10:11:41.839Z,98965.59
2023-03-03T10:15:11.819Z,98956.19
2023-03-03T10:18:24.503Z,98957.97
2023-03-03T10:21:31.422Z,98957.06
2023-03-03T10:24:41.557Z,98963.25
2023-03-03T10:27:56.312Z,98961.09
2023-03-03T10:31:12.135Z,98965.84
2023-03-03T10:34:26.295Z,98961.72
2023-03-03T10:37:34.398Z,98977.91
2023-03-03T10:40:40.209Z,98962.53
2023-03-03T10:43:59.000Z,98960.81
2023-03-03T10:47:19.194Z,98956.88
2023-03-03T10:50:26.059Z,98958.09
2023-03-03T10:53:32.636Z,98960.47
2023-03-03T10:56:52.441Z,98953.44
2023-03-03T11:00:05.482Z,98948.84
2023-03-03T11:03:47.041Z,98953.28
2023-03-03T11:07:05.894Z,98951.38
2023-03-03T11:10:47.916Z,98951.03
2023-03-03T11:13:57.710Z,98952.88
2023-03-03T11:17:08.297Z,98963.69
2023-03-03T11:20:20.569Z,98959.41
2023-03-03T11:23:40.989Z,98961.56
2023-03-03T11:26:55.349Z,98967.94
2023-03-03T11:30:17.908Z,98975.47
2023-03-03T11:33:22.607Z,98965.53
2023-03-03T11:36:29.059Z,98971.03
2023-03-03T11:39:34.085Z,98965.38
2023-03-03T11:42:43.109Z,98968.81
2023-03-03T11:45:50.366Z,98955.09
2023-03-03T11:48:56.501Z,98956.69
2023-03-03T11:52:06.639Z,98953.59
2023-03-03T11:55:14.671Z,98945.91
2023-03-03T11:58:22.073Z,98939.09
2023-03-03T12:01:27.902Z,98937.97
2023-03-03T12:04:34.843Z,98931.00
2023-03-03T12:07:42.810Z,98924.63
2023-03-03T12:10:50.277Z,98930.56
2023-03-03T12:13:58.519Z,98920.34
2023-03-03T12:17:04.921Z,98922.63
2023-03-03T12:20:11.104Z,98919.41
2023-03-03T12:23:27.765Z,98922.63
2023-03-03T12:26:37.116Z,98918.44
2023-03-03T12:29:46.954Z,98921.81
2023-03-03T12:33:01.592Z,98916.81
2023-03-03T12:36:15.348Z,98912.28
2023-03-03T12:39:34.782Z,98917.28
2023-03-03T12:42:48.716Z,98905.97
2023-03-03T12:45:59.257Z,98902.50
2023-03-03T12:49:05.745Z,98906.81
2023-03-03T12:52:20.105Z,98903.13
2023-03-03T12:55:40.317Z,98902.63
2023-03-03T12:58:55.914Z,98903.38
2023-03-03T13:02:09.137Z,98901.44
2023-03-03T13:05:30.818Z,98901.22
2023-03-03T13:09:06.666Z,98894.84
2023-03-03T13:12:25.262Z,98906.34
2023-03-03T13:15:33.203Z,98906.44
2023-03-03T13:19:09.514Z,98900.94
2023-03-03T13:22:21.148Z,98889.88
2023-03-03T13:25:45.411Z,98894.78
2023-03-03T13:29:04.272Z,98890.38
2023-03-03T13:32:19.164Z,98890.69
2023-03-03T13:35:37.834Z,98889.50
2023-03-03T13:38:47.769Z,98888.06
2023-03-03T13:41:57.583Z,98878.44
2023-03-03T13:45:03.210Z,98881.56
2023-03-03T13:48:13.076Z,98872.94
2023-03-03T13:51:40.698Z,98886.63
2023-03-03T13:55:04.440Z,98873.19
2023-03-03T13:58:18.444Z,98874.81
2023-03-03T14:01:27.392Z,98872.78
2023-03-03T14:04:40.340Z,98867.53
2023-03-03T14:07:51.235Z,98866.94
2023-03-03T14:11:06.394Z,98861.63
2023-03-03T14:14:18.877Z,98867.38
2023-03-03T14:17:29.772Z,98858.88
2023-03-03T14:20:37.876Z,98870.81
2023-03-03T14:23:52.605Z,98861.63
2023-03-03T14:26:57.118Z,98855.03
2023-03-03T14:30:01.212Z,98857.47
2023-03-03T14:33:23.155Z,98860.56
2023-03-03T14:36:33.146Z,98847.03
2023-03-03T14:39:37.767Z,98845.59
2023-03-03T14:42:49.262Z,98850.88
2023-03-03T14:45:52.373Z,98847.31
2023-03-03T14:48:57.764Z,98846.25
2023-03-03T14:52:05.272Z,98844.81
2023-03-03T14:55:31.764Z,98844.91
2023-03-03T14:58:39.406Z,98846.91
2023-03-03T15:01:43.550Z,98843.91
2023-03-03T15:04:47.204Z,98837.94
2023-03-03T15:07:57.805Z,98835.44
2023-03-03T15:11:15.100Z,98833.75
2023-03-03T15:14:20.052Z,98828.13
2023-03-03T15:17:29.343Z,98828.38
2023-03-03T15:20:37.122Z,98831.25
2023-03-03T15:23:50.157Z,98822.53
2023-03-03T15:26:56.671Z,98823.13
2023-03-03T15:30:09.105Z,98832.88
2023-03-03T15:33:17.591Z,98823.25
2023-03-03T15:36:31.554Z,98819.78
2023-03-03T15:39:42.290Z,98815.72
2023-03-03T15:42:49.725Z,98822.94
2023-03-03T15:45:56.522Z,98814.84
2023-03-03T15:49:08.362Z,98811.47
2023-03-03T15:52:23.544Z,98816.44
2023-03-03T15:55:48.383Z,98814.03
2023-03-03T15:59:09.565Z,98815.28
2023-03-03T16:02:23.722Z,98812.88
2023-03-03T16:05:46.925Z,98823.50
2023-03-03T16:09:09.098Z,98827.19
2023-03-03T16:12:18.729Z,98829.13
2023-03-03T16:15:34.185Z,98828.94
2023-03-03T16:18:46.296Z,98824.50
2023-03-03T16:22:04.227Z,98830.84
2023-03-03T16:25:19.038Z,98835.75
2023-03-03T16:28:27.245Z,98840.19
2023-03-03T16:31:36.305Z,98840.06
2023-03-03T16:34:45.150Z,98841.94
2023-03-03T16:37:57.003Z,98836.41
2023-03-03T16:41:02.505Z,98846.25
2023-03-03T16:44:15.937Z,98845.06
2023-03-03T16:47:30.214Z,98847.41
2023-03-03T16:50:40.743Z,98855.56
2023-03-03T16:53:54.916Z,98849.34
2023-03-03T16:57:07.416Z,98867.38
2023-03-03T17:00:13.880Z,98863.09
2023-03-03T17:03:36.048Z,98868.97
2023-03-03T17:06:42.692Z,98872.56
2023-03-03T17:09:53.080Z,98870.97
2023-03-03T17:13:06.146Z,98874.09
2023-03-03T17:16:15.650Z,98882.97
2023-03-03T17:19:27.458Z,98891.63
2023-03-03T17:22:35.344Z,98896.66
2023-03-03T17:25:41.992Z,98890.81
2023-03-03T17:28:53.615Z,98903.56
2023-03-03T17:32:04.914Z,98900.00
2023-03-03T17:35:16.311Z,98906.03
2023-03-03T17:38:26.254Z,98913.53
2023-03-03T17:41:34.509Z,98915.66
2023-03-03T17:44:41.928Z,98917.91
2023-03-03T17:47:54.878Z,98923.28
2023-03-03T17:51:18.415Z,98927.00
2023-03-03T17:54:54.567Z,98933.28
2023-03-03T17:58:19.867Z,98929.66
2023-03-03T18:01:31.028Z,98936.06
2023-03-03T18:04:52.431Z,98937.91
2023-03-03T18:08:14.176Z,98946.66
2023-03-03T18:11:23.242Z,98943.50
2023-03-03T18:14:55.355Z,98939.63
2023-03-03T18:18:06.865Z,98951.66
2023-03-03T18:21:16.751Z,98955.81
2023-03-03T18:24:32.333Z,98955.88
2023-03-03T18:27:36.992Z,98950.75
2023-03-03T18:30:55.395Z,98962.78
2023-03-03T18:34:04.172Z,98955.75
2023-03-03T18:37:12.102Z,98962.19
2023-03-03T18:40:33.363Z,98967.41
2023-03-03T18:43:58.286Z,98973.72
2023-03-03T18:47:01.003Z,98979.41
2023-03-03T18:50:15.314Z,98975.09
2023-03-03T18:53:30.171Z,98976.25
2023-03-03T18:56:45.048Z,98983.09
2023-03-03T18:59:56.562Z,98990.91
2023-03-03T19:03:01.565Z,99001.75
2023-03-03T19:06:08.576Z,98989.56
2023-03-03T19:09:18.926Z,98997.25
2023-03-03T19:13:03.222Z,99002.47
2023-03-03T19:16:06.391Z,98989.78
2023-03-03T19:19:14.215Z,99000.88
2023-03-03T19:22:27.660Z,98994.56
2023-03-03T19:25:32.747Z,98996.03
2023-03-03T19:28:39.186Z,99002.53
2023-03-03T19:31:47.740Z,99008.78
2023-03-03T19:34:56.828Z,99002.00
2023-03-03T19:38:07.224Z,99008.25
2023-03-03T19:41:21.271Z,99006.66
2023-03-03T19:44:45.596Z,99008.53
2023-03-03T19:47:49.227Z,99012.56
2023-03-03T19:50:56.294Z,99014.97
2023-03-03T19:54:08.109Z,99018.81
2023-03-03T19:57:19.772Z,99018.53
2023-03-03T20:00:28.022Z,99020.47
2023-03-03T20:03:56.708Z,99021.00
2023-03-03T20:07:08.597Z,99022.34
2023-03-03T20:10:30.138Z,99028.03
2023-03-03T20:13:46.494Z,99037.06
2023-03-03T20:16:51.290Z,99031.72
2023-03-03T20:19:57.752Z,99041.19
2023-03-03T20:23:06.115Z,99040.38
2023-03-03T20:26:14.980Z,99044.44
2023-03-03T20:29:32.648Z,99039.09
2023-03-03T20:32:48.951Z,99045.56
2023-03-03T20:35:57.145Z,99048.25
2023-03-03T20:39:06.109Z,99037.69
2023-03-03T20:42:16.125Z,99040.66
2023-03-03T20:45:28.143Z,99041.22
2023-03-03T20:48:41.390Z,99052.56
2023-03-03T20:51:46.155Z,99040.66
2023-03-03T20:54:52.422Z,99041.22
2023-03-03T20:58:01.950Z,99048.81
2023-03-03T21:01:08.298Z,99053.13
2023-03-03T21:04:25.315Z,99054.50
2023-03-03T21:07:28.092Z,99058.00
2023-03-03T21:10:33.874Z,99051.78
2023-03-03T21:13:40.849Z,99058.56
2023-03-03T21:16:44.922Z,99065.06
2023-03-03T21:19:47.627Z,99062.88
2023-03-03T21:22:50.622Z,99066.09
2023-03-03T21:25:54.121Z,99061.53
2023-03-03T21:29:03.623Z,99067.75
2023-03-03T21:32:08.928Z,99065.59
2023-03-03T21:35:13.201Z,99065.28
2023-03-03T21:38:33.054Z,99069.63
2023-03-03T21:41:55.358Z,99074.47
2023-03-03T21:44:57.966Z,99066.38
2023-03-03T21:48:05.375Z,99062.56
2023-03-03T21:51:07.991Z,99068.00
2023-03-03T21:54:11.936Z,99064.44
2023-03-03T21:57:15.050Z,99062.84
2023-03-03T22:00:18.631Z,99063.91
2023-03-03T22:03:23.846Z,99059.88
2023-03-03T22:06:26.560Z,99064.19
2023-03-03T22:09:29.753Z,99068.22
2023-03-03T22:12:32.325Z,99068.97
2023-03-03T22:15:35.030Z,99068.16
2023-03-03T22:18:39.275Z,99065.94
2023-03-03T22:21:41.829Z,99065.38
2023-03-03T22:24:44.577Z,99066.75
2023-03-03T22:27:47.454Z,99076.66
2023-03-03T22:30:50.103Z,99069.44
2023-03-03T22:33:54.194Z,99063.19
2023-03-03T22:36:56.736Z,99065.91
2023-03-03T22:39:59.328Z,99056.19
2023-03-03T22:43:02.389Z,99062.34
2023-03-03T22:46:05.465Z,99065.00
2023-03-03T22:49:09.597Z,99058.75
2023-03-03T22:52:12.350Z,99063.66
2023-03-03T22:55:15.171Z,99067.94
2023-03-03T22:58:19.763Z,99068.72
2023-03-03T23:01:22.551Z,99080.28
2023-03-03T23:04:26.596Z,99080.22
2023-03-03T23:07:29.849Z,99081.56
2023-03-03T23:10:32.429Z,99087.19
2023-03-03T23:13:36.182Z,99088.44
2023-03-03T23:16:38.942Z,99087.38
2023-03-03T23:19:44.043Z,99081.97
2023-03-03T23:22:46.703Z,99081.72
2023-03-03T23:25:49.294Z,99084.28
2023-03-03T23:28:52.226Z,99094.19
2023-03-03T23:31:54.871Z,99087.75
2023-03-03T23:34:58.815Z,99088.25
2023-03-03T23:38:01.763Z,99087.94
2023-03-03T23:41:04.627Z,99093.72
2023-03-03T23:44:07.480Z,99097.25
2023-03-03T23:47:10.488Z,99094.66
2023-03-03T23:50:14.577Z,99089.28
2023-03-03T23:53:17.444Z,99098.72
2023-03-03T23:56:20.774Z,99104.63
2023-03-03T23:59:23.856Z,99099.47
